Time;durP1;ratioP1;P1;durP2;ratioP2;P2;SDS_P1;SDS_P2;PMS_P1;PMS_P2;Temp;Humidity;BMP_temperature;BMP_pressure;BME280_temperature;BME280_humidity;BME280_pressure;Samples;Min_cycle;Max_cycle;Signal;HPM_P1;HPM_P2
2022/03/03 00:00:22;;;;;;;6.25;3.10;;;0.30;99.90;;;;;;5019346;28;20565;-76
2022/03/03 00:02:48;;;;;;;5.82;3.00;;;0.30;99.90;;;;;;5020022;28;20475;-76
2022/03/03 00:05:14;;;;;;;7.32;3.17;;;0.20;99.90;;;;;;5027960;28;20029;-76
2022/03/03 00:07:40;;;;;;;6.03;2.47;;;0.20;99.90;;;;;;5019496;28;20078;-75
2022/03/03 00:10:09;;;;;;;4.03;1.95;;;0.10;99.90;;;;;;5020151;28;20099;-76
2022/03/03 00:12:34;;;;;;;5.72;2.30;;;0.10;99.90;;;;;;4995961;28;20128;-75
2022/03/03 00:15:00;;;;;;;5.50;2.20;;;0.20;99.90;;;;;;5011598;28;20029;-76
2022/03/03 00:17:26;;;;;;;5.07;2.15;;;0.10;99.90;;;;;;5003083;28;20432;-76
2022/03/03 00:19:51;;;;;;;6.90;2.13;;;0.10;99.90;;;;;;5018431;28;20057;-76
2022/03/03 00:22:17;;;;;;;6.00;2.55;;;0.10;99.90;;;;;;5027542;28;20092;-76
2022/03/03 00:24:44;;;;;;;7.80;3.05;;;0.00;99.90;;;;;;5023884;28;20061;-77
2022/03/03 00:27:09;;;;;;;8.35;3.13;;;-0.10;99.90;;;;;;5012346;28;20037;-75
2022/03/03 00:29:35;;;;;;;6.90;3.42;;;-0.10;99.90;;;;;;5023999;28;20030;-76
2022/03/03 00:32:01;;;;;;;6.65;2.40;;;-0.30;99.90;;;;;;5018859;28;20065;-77
2022/03/03 00:34:26;;;;;;;6.07;3.20;;;-0.30;99.90;;;;;;5002215;28;20048;-75
2022/03/03 00:36:52;;;;;;;7.20;2.85;;;-0.40;99.90;;;;;;5018343;28;20052;-75
2022/03/03 00:39:18;;;;;;;7.05;3.10;;;-0.30;99.90;;;;;;5018924;28;20496;-75
2022/03/03 00:41:43;;;;;;;4.00;1.92;;;-0.40;99.90;;;;;;5002447;28;20140;-76
2022/03/03 00:44:10;;;;;;;4.25;2.22;;;-0.30;99.90;;;;;;4996381;28;20022;-75
2022/03/03 00:46:39;;;;;;;6.57;2.22;;;-0.30;99.90;;;;;;5003249;28;20049;-75
2022/03/03 00:49:05;;;;;;;5.30;2.80;;;-0.30;99.90;;;;;;5023280;28;20029;-75
2022/03/03 00:51:31;;;;;;;6.43;2.47;;;-0.20;99.90;;;;;;4994529;28;20041;-75
2022/03/03 00:53:57;;;;;;;6.22;2.83;;;-0.20;99.90;;;;;;5017600;28;20037;-76
2022/03/03 00:56:23;;;;;;;7.30;3.35;;;-0.20;99.90;;;;;;4993991;28;20065;-76
2022/03/03 00:58:49;;;;;;;5.95;2.92;;;-0.30;99.90;;;;;;5011632;28;20028;-76
2022/03/03 01:01:15;;;;;;;5.68;2.72;;;-0.30;99.90;;;;;;4994690;28;20033;-75
2022/03/03 01:03:41;;;;;;;7.30;3.95;;;-0.20;99.90;;;;;;5011762;28;20037;-76
2022/03/03 01:06:08;;;;;;;8.95;3.35;;;-0.20;99.90;;;;;;5018847;28;20041;-77
2022/03/03 01:08:34;;;;;;;5.43;3.05;;;-0.20;99.90;;;;;;5017829;28;20037;-76
2022/03/03 01:10:59;;;;;;;6.78;2.80;;;-0.40;99.90;;;;;;5018401;28;20025;-76
2022/03/03 01:13:25;;;;;;;6.90;3.25;;;-0.30;99.90;;;;;;5033112;28;20036;-75
2022/03/03 01:15:53;;;;;;;6.07;2.95;;;-0.30;99.90;;;;;;5002095;28;20527;-75
2022/03/03 01:18:19;;;;;;;7.65;3.35;;;-0.30;99.90;;;;;;5018109;28;20034;-76
2022/03/03 01:20:44;;;;;;;6.18;2.83;;;-0.20;99.90;;;;;;5011046;28;20099;-76
2022/03/03 01:23:10;;;;;;;6.18;3.47;;;-0.30;99.90;;;;;;5023259;28;20042;-76
2022/03/03 01:25:36;;;;;;;6.10;3.05;;;-0.40;99.90;;;;;;4994640;28;20040;-75
2022/03/03 01:28:01;;;;;;;7.25;2.70;;;-0.50;99.90;;;;;;5001124;28;20037;-76
2022/03/03 01:30:27;;;;;;;7.20;3.33;;;-0.60;99.90;;;;;;5021902;28;20048;-75
2022/03/03 01:32:53;;;;;;;6.95;3.03;;;-0.50;99.90;;;;;;5018271;28;20348;-76
2022/03/03 01:35:18;;;;;;;6.43;2.88;;;-0.40;99.90;;;;;;5010147;28;20465;-76
2022/03/03 01:37:44;;;;;;;6.15;2.58;;;-0.40;99.90;;;;;;4994230;28;20473;-76
2022/03/03 01:40:11;;;;;;;6.57;2.88;;;-0.30;99.90;;;;;;4999190;28;20025;-76
2022/03/03 01:42:36;;;;;;;5.85;2.88;;;-0.30;99.90;;;;;;5016830;28;20505;-76
2022/03/03 01:45:04;;;;;;;5.90;2.50;;;-0.30;99.90;;;;;;4995335;28;20034;-76
2022/03/03 01:47:30;;;;;;;5.85;2.67;;;-0.40;99.90;;;;;;4993445;28;20049;-76
2022/03/03 01:49:57;;;;;;;6.18;3.08;;;-0.20;99.90;;;;;;5026412;28;20029;-75
2022/03/03 01:52:23;;;;;;;9.43;2.75;;;-0.30;99.90;;;;;;4994279;28;20460;-76
2022/03/03 01:54:49;;;;;;;6.90;3.22;;;-0.20;99.90;;;;;;5010558;28;20083;-75
2022/03/03 01:57:17;;;;;;;7.43;4.18;;;-0.30;99.90;;;;;;5022221;28;20029;-75
2022/03/03 01:59:43;;;;;;;7.07;3.25;;;-0.40;99.90;;;;;;5016502;28;20037;-76
2022/03/03 02:02:10;;;;;;;6.75;3.30;;;-0.50;99.90;;;;;;5026694;28;20049;-75
2022/03/03 02:04:37;;;;;;;7.13;3.13;;;-0.40;99.90;;;;;;5031900;28;20025;-75
2022/03/03 02:07:03;;;;;;;7.10;2.90;;;-0.30;99.90;;;;;;5033416;28;20044;-75
2022/03/03 02:09:29;;;;;;;6.45;2.92;;;-0.30;99.90;;;;;;4993085;28;20038;-75
2022/03/03 02:11:55;;;;;;;7.50;3.50;;;-0.40;99.90;;;;;;5016187;28;20021;-76
2022/03/03 02:14:21;;;;;;;6.38;2.63;;;-0.30;99.90;;;;;;5010050;28;20037;-75
2022/03/03 02:16:46;;;;;;;7.35;2.85;;;-0.40;99.90;;;;;;5010259;28;20048;-77
2022/03/03 02:19:19;;;;;;;6.07;2.88;;;-0.50;99.90;;;;;;5017884;28;20048;-75
2022/03/03 02:21:50;;;;;;;6.75;2.80;;;-0.40;99.90;;;;;;5032922;28;20038;-76
2022/03/03 02:24:20;;;;;;;8.35;2.85;;;-0.50;99.90;;;;;;5017825;28;20547;-76
2022/03/03 02:26:47;;;;;;;6.65;3.05;;;-0.50;99.90;;;;;;5032456;28;20038;-76
2022/03/03 02:29:12;;;;;;;6.65;2.10;;;-0.60;99.90;;;;;;4989834;28;20033;-76
2022/03/03 02:31:38;;;;;;;5.05;2.40;;;-0.60;99.90;;;;;;5002149;28;20036;-76
2022/03/03 02:34:04;;;;;;;6.32;2.63;;;-0.50;99.90;;;;;;5015835;28;20119;-76
2022/03/03 02:36:30;;;;;;;6.28;2.50;;;-0.70;99.90;;;;;;5032460;28;20107;-76
2022/03/03 02:38:58;;;;;;;7.55;2.63;;;-0.80;99.90;;;;;;5017338;28;20084;-76
2022/03/03 02:41:25;;;;;;;7.93;2.83;;;-0.60;99.90;;;;;;5032461;28;20064;-75
2022/03/03 02:43:51;;;;;;;6.43;2.42;;;-0.70;99.90;;;;;;5009973;28;20371;-76
2022/03/03 02:46:17;;;;;;;6.18;2.58;;;-0.70;99.90;;;;;;5016568;28;20040;-76
2022/03/03 02:48:43;;;;;;;6.85;2.85;;;-0.80;99.90;;;;;;5013440;28;20033;-75
2022/03/03 02:51:09;;;;;;;6.88;2.83;;;-0.80;99.90;;;;;;5020741;28;20025;-76
2022/03/03 02:53:36;;;;;;;7.30;2.85;;;-0.90;99.90;;;;;;5012754;28;20029;-75
2022/03/03 02:56:03;;;;;;;6.88;3.53;;;-1.00;99.90;;;;;;5031071;28;20468;-76
2022/03/03 02:58:28;;;;;;;7.55;3.63;;;-1.10;99.90;;;;;;5004153;28;20037;-76
2022/03/03 03:00:54;;;;;;;7.88;3.85;;;-1.30;99.90;;;;;;5030296;28;20025;-75
2022/03/03 03:03:20;;;;;;;6.50;3.05;;;-1.40;99.90;;;;;;5036897;28;20535;-76
2022/03/03 03:05:46;;;;;;;6.15;3.00;;;-1.30;99.90;;;;;;5020593;28;20026;-76
2022/03/03 03:08:13;;;;;;;7.20;2.63;;;-1.20;99.90;;;;;;5029661;28;20033;-75
2022/03/03 03:10:39;;;;;;;7.68;3.42;;;-1.30;99.90;;;;;;4997069;28;20029;-76
2022/03/03 03:13:06;;;;;;;9.20;2.92;;;-1.20;99.90;;;;;;5013567;28;20172;-75
2022/03/03 03:15:34;;;;;;;7.85;3.13;;;-1.30;99.90;;;;;;5020508;28;20362;-75
2022/03/03 03:18:20;;;;;;;6.40;2.85;;;-1.10;99.90;;;;;;4997917;28;20036;-75
2022/03/03 03:20:50;;;;;;;6.35;2.53;;;-1.20;99.90;;;;;;5019205;28;20041;-76
2022/03/03 03:23:19;;;;;;;6.07;2.45;;;-1.20;99.90;;;;;;4997843;28;20506;-76
2022/03/03 03:25:45;;;;;;;6.38;2.72;;;-1.40;99.90;;;;;;5020200;28;20040;-75
2022/03/03 03:28:15;;;;;;;7.00;3.15;;;-1.40;99.90;;;;;;5014441;28;20087;-76
2022/03/03 03:30:41;;;;;;;5.75;2.60;;;-1.40;99.90;;;;;;5009983;28;20368;-76
2022/03/03 03:33:07;;;;;;;6.53;2.70;;;-1.20;99.90;;;;;;5020728;28;20056;-75
2022/03/03 03:35:34;;;;;;;5.80;2.50;;;-1.30;99.90;;;;;;5002691;28;20510;-76
2022/03/03 03:38:00;;;;;;;6.05;3.00;;;-1.20;99.90;;;;;;5035178;28;20104;-75
2022/03/03 03:40:26;;;;;;;6.68;2.80;;;-1.30;99.90;;;;;;5020148;28;20031;-75
2022/03/03 03:42:52;;;;;;;6.63;2.70;;;-1.30;99.90;;;;;;5029571;28;20124;-76
2022/03/03 03:45:17;;;;;;;5.03;2.22;;;-1.30;99.90;;;;;;5013812;28;21920;-75
2022/03/03 03:47:43;;;;;;;6.50;2.70;;;-1.40;99.90;;;;;;5035569;28;20049;-76
2022/03/03 03:50:11;;;;;;;6.05;2.50;;;-1.60;99.90;;;;;;5029500;28;20425;-76
2022/03/03 03:52:38;;;;;;;7.15;2.33;;;-1.60;99.90;;;;;;5019163;28;20108;-75
2022/03/03 03:55:05;;;;;;;5.10;2.05;;;-1.60;99.90;;;;;;5003682;28;20112;-76
2022/03/03 03:57:31;;;;;;;7.40;2.83;;;-1.70;99.90;;;;;;5012035;28;20474;-76
2022/03/03 03:59:57;;;;;;;6.53;2.47;;;-1.70;99.90;;;;;;5003867;28;20120;-76
2022/03/03 04:02:22;;;;;;;5.88;2.60;;;-1.70;99.90;;;;;;5019020;28;20497;-76
2022/03/03 04:04:48;;;;;;;5.15;2.30;;;-1.60;99.90;;;;;;5019622;28;20025;-75
2022/03/03 04:07:14;;;;;;;5.13;2.17;;;-1.70;99.90;;;;;;5024040;28;20049;-76
2022/03/03 04:09:39;;;;;;;5.57;1.98;;;-1.60;99.90;;;;;;5019372;28;20038;-76
2022/03/03 04:12:06;;;;;;;5.72;2.70;;;-1.60;99.90;;;;;;5012752;28;20052;-75
2022/03/03 04:14:31;;;;;;;8.18;2.88;;;-1.50;99.90;;;;;;5011752;28;20504;-76
2022/03/03 04:16:57;;;;;;;8.05;3.67;;;-1.60;99.90;;;;;;5019364;28;20037;-76
2022/03/03 04:19:23;;;;;;;5.75;2.90;;;-1.50;99.90;;;;;;5002838;28;20025;-75
2022/03/03 04:21:48;;;;;;;6.03;2.45;;;-1.70;99.90;;;;;;5019796;28;20359;-76
2022/03/03 04:24:15;;;;;;;6.15;2.50;;;-1.70;99.90;;;;;;5018886;28;20515;-76
2022/03/03 04:26:40;;;;;;;7.25;3.00;;;-1.60;99.90;;;;;;5018658;28;20058;-77
2022/03/03 04:29:06;;;;;;;6.20;2.97;;;-1.70;99.90;;;;;;5024044;28;20067;-75
2022/03/03 04:31:32;;;;;;;6.10;2.80;;;-1.70;99.90;;;;;;5011993;28;22136;-76
2022/03/03 04:33:57;;;;;;;5.68;2.55;;;-1.80;99.90;;;;;;5019363;28;20508;-76
2022/03/03 04:36:23;;;;;;;6.00;2.58;;;-1.80;99.90;;;;;;5020242;28;20030;-75
2022/03/03 04:38:50;;;;;;;6.20;2.40;;;-1.70;99.90;;;;;;5019556;28;20030;-76
2022/03/03 04:41:20;;;;;;;6.72;2.40;;;-1.80;99.90;;;;;;5018261;28;20503;-76
2022/03/03 04:43:45;;;;;;;5.53;2.05;;;-1.90;99.90;;;;;;5011240;28;20057;-75
2022/03/03 04:46:11;;;;;;;5.00;2.40;;;-2.10;99.90;;;;;;5002149;28;20520;-76
2022/03/03 04:48:37;;;;;;;6.45;2.72;;;-2.00;99.90;;;;;;5024403;28;20025;-75
2022/03/03 04:51:03;;;;;;;5.65;2.17;;;-1.90;99.90;;;;;;5019360;28;20107;-76
2022/03/03 04:53:29;;;;;;;7.95;2.75;;;-1.90;99.90;;;;;;4996024;28;20045;-76
2022/03/03 04:55:56;;;;;;;6.20;2.50;;;-1.90;99.90;;;;;;5027169;28;20037;-76
2022/03/03 04:58:22;;;;;;;7.00;2.78;;;-1.90;99.90;;;;;;5018459;28;20129;-75
2022/03/03 05:00:48;;;;;;;6.03;2.85;;;-1.90;99.90;;;;;;5002785;28;20112;-76
2022/03/03 05:03:14;;;;;;;5.63;2.80;;;-1.80;99.90;;;;;;5002191;28;20049;-76
2022/03/03 05:05:40;;;;;;;7.97;2.97;;;-2.00;99.90;;;;;;4986253;28;20030;-75
2022/03/03 05:08:05;;;;;;;8.82;3.30;;;-2.00;99.90;;;;;;5020406;28;20048;-76
2022/03/03 05:10:31;;;;;;;8.07;3.00;;;-2.20;99.90;;;;;;5026787;28;20482;-76
2022/03/03 05:12:57;;;;;;;6.97;3.10;;;-2.20;99.90;;;;;;5022922;28;20057;-75
2022/03/03 05:15:23;;;;;;;7.60;2.90;;;-2.30;99.90;;;;;;5011387;28;20386;-76
2022/03/03 05:17:51;;;;;;;6.00;2.65;;;-2.20;99.90;;;;;;5018185;28;20045;-76
2022/03/03 05:20:16;;;;;;;7.78;3.47;;;-2.00;99.90;;;;;;5011252;28;20037;-75
2022/03/03 05:22:42;;;;;;;4.97;2.28;;;-2.10;99.90;;;;;;5010447;28;20045;-75
2022/03/03 05:25:10;;;;;;;7.57;3.20;;;-2.20;99.90;;;;;;5018151;28;20021;-76
2022/03/03 05:27:36;;;;;;;7.18;2.88;;;-2.20;99.90;;;;;;5010122;28;20037;-75
2022/03/03 05:30:03;;;;;;;6.55;3.13;;;-2.40;99.90;;;;;;5033126;28;20148;-75
2022/03/03 05:32:29;;;;;;;6.40;2.58;;;-2.50;99.90;;;;;;5026040;28;20029;-75
2022/03/03 05:34:55;;;;;;;6.80;2.78;;;-2.50;99.90;;;;;;5018306;28;20383;-76
2022/03/03 05:37:23;;;;;;;6.70;2.60;;;-2.30;99.90;;;;;;5032556;28;20061;-75
2022/03/03 05:39:49;;;;;;;7.53;2.90;;;-2.30;99.90;;;;;;5019099;28;20178;-75
2022/03/03 05:42:15;;;;;;;5.60;2.65;;;-2.50;99.90;;;;;;5032049;28;20041;-75
2022/03/03 05:44:42;;;;;;;6.72;2.92;;;-2.30;99.90;;;;;;5018082;28;20044;-75
2022/03/03 05:47:08;;;;;;;7.22;2.97;;;-2.20;99.90;;;;;;4994769;28;20510;-76
2022/03/03 05:49:33;;;;;;;6.93;3.28;;;-2.20;99.90;;;;;;5001149;28;20065;-75
2022/03/03 05:51:59;;;;;;;7.00;2.65;;;-2.40;99.90;;;;;;5033031;28;20036;-75
2022/03/03 05:54:25;;;;;;;6.97;3.28;;;-2.40;99.90;;;;;;5016491;28;20116;-75
2022/03/03 05:56:54;;;;;;;6.93;2.75;;;-2.50;99.90;;;;;;5005467;28;20988;-75
2022/03/03 05:59:23;;;;;;;7.03;2.67;;;-2.50;99.90;;;;;;5033458;28;20125;-76
2022/03/03 06:01:49;;;;;;;6.88;3.17;;;-2.40;99.90;;;;;;5018329;28;20047;-76
2022/03/03 06:04:16;;;;;;;8.20;3.08;;;-2.40;99.90;;;;;;5033173;28;20731;-75
2022/03/03 06:06:58;;;;;;;6.95;3.28;;;-2.40;99.90;;;;;;5027389;28;20025;-75
2022/03/03 06:09:28;;;;;;;7.57;3.35;;;-2.30;99.90;;;;;;5015516;28;20048;-76
2022/03/03 06:11:57;;;;;;;7.90;3.25;;;-2.50;99.90;;;;;;5000206;28;20545;-76
2022/03/03 06:14:29;;;;;;;6.68;2.80;;;-2.40;99.90;;;;;;5010606;28;20437;-75
2022/03/03 06:16:59;;;;;;;6.55;3.05;;;-2.40;99.90;;;;;;5010791;28;20386;-75
2022/03/03 06:19:25;;;;;;;11.18;3.42;;;-2.60;99.90;;;;;;5017253;28;20124;-75
2022/03/03 06:21:51;;;;;;;7.97;3.20;;;-2.60;99.90;;;;;;5000065;28;20056;-75
2022/03/03 06:24:16;;;;;;;7.05;2.90;;;-2.40;99.90;;;;;;5010648;28;20029;-77
2022/03/03 06:26:42;;;;;;;7.32;2.38;;;-2.40;99.90;;;;;;4999685;28;20040;-76
2022/03/03 06:29:08;;;;;;;9.77;2.72;;;-2.50;99.90;;;;;;5010399;28;20128;-75
2022/03/03 06:31:33;;;;;;;9.05;3.20;;;-2.40;99.90;;;;;;5008302;28;20410;-76
2022/03/03 06:33:59;;;;;;;7.25;2.80;;;-2.40;99.90;;;;;;5010802;28;20026;-75
2022/03/03 06:36:25;;;;;;;6.88;2.45;;;-2.40;99.90;;;;;;5008739;28;20064;-75
2022/03/03 06:38:50;;;;;;;5.72;2.55;;;-2.40;99.90;;;;;;5010021;28;20018;-75
2022/03/03 06:41:16;;;;;;;7.57;3.08;;;-2.60;99.90;;;;;;5000044;28;20037;-77
2022/03/03 06:43:42;;;;;;;6.55;2.50;;;-2.60;99.90;;;;;;5021815;28;20061;-76
2022/03/03 06:46:09;;;;;;;8.95;2.72;;;-2.50;99.90;;;;;;5014723;28;20045;-76
2022/03/03 06:48:34;;;;;;;8.25;2.83;;;-2.50;99.90;;;;;;5009564;28;20105;-75
2022/03/03 06:51:03;;;;;;;8.95;3.05;;;-2.50;99.90;;;;;;5005291;28;20109;-75
2022/03/03 06:53:34;;;;;;;7.38;3.22;;;-2.50;99.90;;;;;;5017949;28;20688;-75
2022/03/03 06:56:04;;;;;;;;;;;-2.40;99.90;;;;;;5017679;28;20033;-75
2022/03/03 06:58:31;;;;;;;6.88;2.75;;;-2.60;99.90;;;;;;5010939;28;19972;-76
2022/03/03 07:00:58;;;;;;;6.93;3.03;;;-2.50;99.90;;;;;;4988837;28;20098;-75
2022/03/03 07:03:25;;;;;;;8.02;3.78;;;-2.30;99.90;;;;;;4998421;28;20096;-76
2022/03/03 07:05:54;;;;;;;8.43;3.72;;;-2.10;99.90;;;;;;5014065;28;20923;-75
2022/03/03 07:08:20;;;;;;;8.27;3.42;;;-2.10;99.90;;;;;;5022867;28;20496;-75
2022/03/03 07:10:47;;;;;;;7.55;3.60;;;-2.10;99.90;;;;;;5006965;28;22106;-76
2022/03/03 07:13:16;;;;;;;7.85;3.70;;;-2.10;99.90;;;;;;5023395;28;20037;-76
2022/03/03 07:15:49;;;;;;;8.73;3.90;;;-2.00;99.90;;;;;;5012525;28;20398;-76
2022/03/03 07:18:18;;;;;;;7.95;3.58;;;-1.80;99.90;;;;;;4990619;28;20072;-76
2022/03/03 07:21:09;;;;;;;9.35;3.92;;;-1.80;99.90;;;;;;4992022;28;20084;-76
2022/03/03 07:23:39;;;;;;;8.60;4.28;;;-1.70;99.90;;;;;;5012481;28;20394;-75
2022/03/03 07:26:10;;;;;;;10.43;4.40;;;-1.60;99.90;;;;;;5013960;28;20033;-76
2022/03/03 07:28:40;;;;;;;7.63;3.20;;;-1.50;99.90;;;;;;5006623;28;20033;-76
2022/03/03 07:31:07;;;;;;;9.48;3.53;;;-1.40;99.90;;;;;;5006843;28;20025;-75
2022/03/03 07:33:40;;;;;;;8.20;4.10;;;-1.30;99.90;;;;;;5016763;28;20232;-75
2022/03/03 07:36:09;;;;;;;10.40;4.30;;;-1.10;99.90;;;;;;5017127;28;20068;-76
2022/03/03 07:38:37;;;;;;;8.82;4.05;;;-1.10;99.90;;;;;;5010546;28;20036;-75
2022/03/03 07:41:04;;;;;;;9.60;3.88;;;-0.90;99.90;;;;;;5011411;28;20034;-75
2022/03/03 07:43:30;;;;;;;7.47;3.90;;;-0.90;99.90;;;;;;5010581;28;20060;-75
2022/03/03 07:45:56;;;;;;;9.35;4.22;;;-0.90;99.90;;;;;;5017755;28;20477;-75
2022/03/03 07:48:25;;;;;;;8.38;3.83;;;-0.80;99.90;;;;;;5010697;28;20029;-77
2022/03/03 07:50:51;;;;;;;8.98;4.25;;;-0.80;99.90;;;;;;5011713;28;20086;-76
2022/03/03 07:53:18;;;;;;;8.95;4.65;;;-0.70;99.90;;;;;;5015929;28;20102;-75
2022/03/03 07:55:47;;;;;;;10.50;4.85;;;-0.60;99.90;;;;;;5018742;28;20575;-75
2022/03/03 07:58:16;;;;;;;8.63;4.15;;;-0.50;99.90;;;;;;5017063;28;20075;-75
2022/03/03 08:00:47;;;;;;;8.93;4.55;;;-0.40;99.90;;;;;;5002789;28;20072;-76
2022/03/03 08:03:15;;;;;;;8.13;3.40;;;-0.30;99.90;;;;;;5019124;28;20037;-76
2022/03/03 08:05:44;;;;;;;8.48;4.38;;;-0.20;99.90;;;;;;4995714;28;20092;-75
2022/03/03 08:08:14;;;;;;;8.13;3.92;;;-0.10;99.90;;;;;;4994962;28;20044;-76
2022/03/03 08:10:41;;;;;;;;;;;0.00;99.90;;;;;;5029455;28;20032;-75
2022/03/03 08:13:11;;;;;;;9.15;3.95;;;0.30;99.90;;;;;;5012224;28;19920;-75
2022/03/03 08:15:38;;;;;;;8.88;4.25;;;0.30;99.90;;;;;;5023852;28;20112;-75
2022/03/03 08:18:04;;;;;;;10.32;5.30;;;0.50;99.90;;;;;;5012946;28;20037;-76
2022/03/03 08:20:33;;;;;;;9.13;5.20;;;0.70;99.90;;;;;;5011707;28;20034;-75
2022/03/03 08:23:00;;;;;;;6.90;3.88;;;1.00;99.90;;;;;;4995625;28;20037;-76
2022/03/03 08:25:26;;;;;;;6.80;3.75;;;1.20;99.90;;;;;;5017090;28;20148;-76
2022/03/03 08:27:54;;;;;;;9.35;5.10;;;1.30;99.90;;;;;;5027469;28;20360;-75
2022/03/03 08:30:21;;;;;;;7.40;4.22;;;1.50;99.90;;;;;;5017393;28;20049;-76
2022/03/03 08:33:17;;;;;;;7.07;4.35;;;1.80;99.90;;;;;;5010720;28;20076;-76
2022/03/03 08:35:49;;;;;;;11.68;5.90;;;2.00;99.90;;;;;;5009410;28;20038;-76
2022/03/03 08:38:34;;;;;;;11.18;6.03;;;2.20;99.90;;;;;;5014919;28;20029;-76
2022/03/03 08:41:01;;;;;;;10.18;5.03;;;2.40;99.90;;;;;;4977831;28;20037;-76
2022/03/03 08:43:32;;;;;;;9.40;5.05;;;2.50;99.90;;;;;;4989153;28;20056;-76
2022/03/03 08:46:02;;;;;;;9.82;5.65;;;2.60;99.90;;;;;;5008532;28;20494;-76
2022/03/03 08:48:30;;;;;;;10.50;6.20;;;2.80;99.90;;;;;;4987423;28;20025;-76
2022/03/03 08:50:57;;;;;;;10.45;5.45;;;3.00;99.90;;;;;;5016078;28;20469;-76
2022/03/03 08:53:23;;;;;;;8.65;5.05;;;3.10;99.90;;;;;;4997695;28;20022;-77
2022/03/03 08:55:49;;;;;;;10.05;4.97;;;3.20;99.90;;;;;;4999934;28;20480;-76
2022/03/03 08:58:14;;;;;;;6.70;4.43;;;3.40;99.90;;;;;;5031577;28;20041;-76
2022/03/03 09:00:41;;;;;;;9.20;5.00;;;3.60;99.90;;;;;;5026789;28;20034;-76
2022/03/03 09:03:07;;;;;;;9.48;5.63;;;3.80;99.90;;;;;;5031221;28;20072;-76
2022/03/03 09:05:32;;;;;;;9.57;5.57;;;3.90;99.90;;;;;;5026143;28;20252;-76
2022/03/03 09:07:58;;;;;;;7.95;4.60;;;4.00;99.90;;;;;;5015588;28;20226;-76
2022/03/03 09:10:24;;;;;;;9.40;5.05;;;4.10;99.90;;;;;;5031953;28;20434;-76
2022/03/03 09:12:51;;;;;;;9.13;5.47;;;4.30;99.90;;;;;;5008940;28;20091;-76
2022/03/03 09:15:17;;;;;;;8.20;5.50;;;4.50;99.90;;;;;;5010015;28;20060;-76
2022/03/03 09:17:43;;;;;;;8.02;4.63;;;4.60;99.90;;;;;;4992410;28;20060;-76
2022/03/03 09:20:13;;;;;;;8.43;5.10;;;4.70;99.90;;;;;;5008875;28;20025;-77
2022/03/03 09:22:40;;;;;;;9.13;4.82;;;4.80;99.90;;;;;;5009608;28;20136;-77
2022/03/03 09:25:06;;;;;;;7.50;4.75;;;5.00;99.90;;;;;;5000217;28;20205;-76
2022/03/03 09:27:32;;;;;;;8.85;4.43;;;5.10;99.90;;;;;;5017283;28;20037;-76
2022/03/03 09:29:57;;;;;;;7.85;4.70;;;5.20;99.90;;;;;;5022059;28;20029;-76
2022/03/03 09:32:23;;;;;;;10.27;5.07;;;5.40;99.90;;;;;;5016326;28;20029;-77
2022/03/03 09:34:49;;;;;;;8.05;5.38;;;5.60;99.90;;;;;;5016672;28;20025;-76
2022/03/03 09:37:15;;;;;;;8.60;5.22;;;5.70;99.90;;;;;;5000866;28;20353;-77
2022/03/03 09:39:41;;;;;;;7.65;4.90;;;5.80;99.90;;;;;;5017611;28;20152;-77
2022/03/03 09:42:08;;;;;;;8.50;4.63;;;5.90;99.90;;;;;;5010601;28;20402;-76
2022/03/03 09:44:34;;;;;;;5.22;3.63;;;6.10;99.90;;;;;;5015803;28;20040;-76
2022/03/03 09:47:00;;;;;;;6.13;3.95;;;6.20;99.90;;;;;;5031555;28;20038;-77
2022/03/03 09:49:25;;;;;;;6.60;4.75;;;6.30;99.90;;;;;;5020822;28;20026;-76
2022/03/03 09:51:51;;;;;;;9.40;5.30;;;6.40;99.90;;;;;;5005166;28;20409;-77
2022/03/03 09:54:17;;;;;;;6.97;4.93;;;6.60;99.90;;;;;;5015438;28;20029;-76
2022/03/03 09:56:45;;;;;;;9.23;5.82;;;6.80;99.90;;;;;;5010371;28;21055;-76
2022/03/03 09:59:11;;;;;;;7.90;4.25;;;6.90;99.90;;;;;;5016074;28;20108;-76
2022/03/03 10:01:37;;;;;;;8.10;4.97;;;7.00;99.90;;;;;;5016400;28;20191;-76
2022/03/03 10:04:29;;;;;;;7.15;5.00;;;7.20;99.90;;;;;;4999837;28;20496;-76
2022/03/03 10:06:54;;;;;;;9.90;5.57;;;7.30;99.90;;;;;;5015077;28;20041;-76
2022/03/03 10:09:20;;;;;;;6.13;4.15;;;7.40;99.90;;;;;;5007747;28;20033;-76
2022/03/03 10:12:01;;;;;;;7.53;4.85;;;7.40;99.90;;;;;;5015419;28;20476;-76
2022/03/03 10:14:30;;;;;;;5.65;3.92;;;7.50;99.90;;;;;;5013117;28;20053;-76
2022/03/03 10:16:56;;;;;;;6.18;4.88;;;7.60;99.90;;;;;;5014684;28;20037;-76
2022/03/03 10:19:22;;;;;;;8.63;5.50;;;7.60;99.90;;;;;;5023373;28;20433;-76
2022/03/03 10:21:47;;;;;;;7.28;4.55;;;7.70;99.90;;;;;;5014767;28;20026;-76
2022/03/03 10:24:21;;;;;;;7.28;4.97;;;8.00;99.90;;;;;;5019968;28;20527;-76
2022/03/03 10:26:58;;;;;;;6.43;4.53;;;8.20;99.90;;;;;;5008679;28;20040;-76
2022/03/03 10:29:25;;;;;;;6.55;4.43;;;8.30;99.90;;;;;;5015270;28;20074;-76
2022/03/03 10:31:52;;;;;;;7.88;5.07;;;8.40;99.90;;;;;;4986040;28;20056;-76
2022/03/03 10:34:26;;;;;;;6.95;4.90;;;8.30;99.90;;;;;;5014350;28;20032;-76
2022/03/03 10:37:01;;;;;;;7.32;4.93;;;8.40;99.90;;;;;;5013084;28;20076;-77
2022/03/03 10:39:48;;;;;;;7.22;4.65;;;8.60;99.90;;;;;;5013948;28;20033;-76
2022/03/03 10:42:19;;;;;;;6.93;4.65;;;8.70;99.90;;;;;;4996607;28;20033;-76
2022/03/03 10:44:45;;;;;;;6.35;4.25;;;8.90;99.90;;;;;;4998128;28;20042;-76
2022/03/03 10:47:16;;;;;;;4.90;3.38;;;9.00;99.90;;;;;;4996978;28;20421;-76
2022/03/03 10:49:45;;;;;;;4.40;2.90;;;9.00;99.90;;;;;;5007436;28;20041;-76
2022/03/03 10:52:13;;;;;;;5.43;4.03;;;9.00;99.90;;;;;;5013004;28;20591;-76
2022/03/03 10:54:51;;;;;;;5.10;3.47;;;9.10;99.90;;;;;;5013228;28;20037;-76
2022/03/03 10:57:37;;;;;;;7.05;4.18;;;9.20;99.90;;;;;;4990976;28;20033;-76
2022/03/03 11:00:16;;;;;;;4.70;3.45;;;9.20;99.90;;;;;;5015116;28;20611;-76
2022/03/03 11:02:44;;;;;;;5.03;3.42;;;9.20;99.90;;;;;;4993620;28;20556;-76
2022/03/03 11:05:11;;;;;;;4.50;3.10;;;9.40;99.90;;;;;;4992616;28;20038;-77
2022/03/03 11:07:42;;;;;;;6.45;4.18;;;9.60;99.90;;;;;;5026202;28;20056;-77
2022/03/03 11:10:10;;;;;;;7.65;4.10;;;9.60;99.90;;;;;;5013243;28;20041;-76
2022/03/03 11:12:38;;;;;;;5.22;3.65;;;9.80;99.90;;;;;;5036021;28;20613;-76
2022/03/03 11:15:04;;;;;;;5.78;3.97;;;9.90;99.90;;;;;;5019294;28;20030;-76
2022/03/03 11:17:30;;;;;;;6.00;4.00;;;10.00;99.90;;;;;;5021112;28;20037;-77
2022/03/03 11:19:59;;;;;;;4.75;3.67;;;9.90;99.90;;;;;;5029700;28;20045;-77
2022/03/03 11:22:25;;;;;;;5.68;3.90;;;10.10;99.90;;;;;;5020099;28;20049;-76
2022/03/03 11:24:52;;;;;;;4.63;3.05;;;9.90;99.90;;;;;;5011163;28;20029;-76
2022/03/03 11:27:18;;;;;;;5.55;3.70;;;10.00;99.90;;;;;;5019072;28;20127;-76
2022/03/03 11:30:17;;;;;;;4.75;3.05;;;10.10;99.90;;;;;;5019043;28;20029;-76
2022/03/03 11:32:44;;;;;;;5.72;3.08;;;10.30;99.90;;;;;;5017864;28;20084;-76
2022/03/03 11:35:14;;;;;;;5.97;3.33;;;10.30;99.90;;;;;;5016757;28;22309;-76
2022/03/03 11:37:45;;;;;;;4.35;2.22;;;10.40;99.90;;;;;;5011122;28;20036;-76
2022/03/03 11:40:16;;;;;;;4.15;3.35;;;10.50;99.90;;;;;;5026163;28;20048;-76
2022/03/03 11:42:54;;;;;;;4.43;3.28;;;10.30;99.90;;;;;;5011031;28;20049;-77
2022/03/03 11:45:34;;;;;;;6.70;4.13;;;10.40;99.90;;;;;;5016581;28;20028;-76
2022/03/03 11:48:36;;;;;;;3.38;2.03;;;10.30;99.90;;;;;;5016182;28;20119;-76
2022/03/03 11:51:32;;;;;;;3.83;2.45;;;10.70;99.90;;;;;;5000348;28;20069;-76
2022/03/03 11:54:07;;;;;;;5.63;2.33;;;10.70;99.90;;;;;;5015693;28;20120;-78
2022/03/03 11:56:33;;;;;;;6.30;2.65;;;10.80;99.90;;;;;;5032879;28;20032;-76
2022/03/03 11:59:12;;;;;;;4.03;2.20;;;10.90;99.90;;;;;;5016760;28;20037;-76
2022/03/03 12:01:56;;;;;;;3.22;2.22;;;10.80;99.90;;;;;;5007896;28;20026;-77
2022/03/03 12:04:25;;;;;;;4.30;2.58;;;10.80;99.90;;;;;;5017303;28;20065;-76
2022/03/03 12:06:51;;;;;;;3.25;2.20;;;10.80;99.90;;;;;;4988810;28;20247;-78
2022/03/03 12:09:17;;;;;;;3.10;1.58;;;10.90;99.90;;;;;;5009479;28;20099;-76
2022/03/03 12:11:43;;;;;;;3.30;2.40;;;10.90;99.90;;;;;;5017442;28;20449;-77
2022/03/03 12:14:29;;;;;;;3.83;2.40;;;10.90;99.90;;;;;;5016549;28;20069;-76
2022/03/03 12:17:14;;;;;;;3.45;2.22;;;11.10;99.90;;;;;;4994146;28;20029;-77
2022/03/03 12:19:40;;;;;;;4.25;1.90;;;11.20;99.90;;;;;;5015945;28;20642;-77
2022/03/03 12:22:23;;;;;;;3.85;1.83;;;11.20;99.90;;;;;;5010579;28;20099;-77
2022/03/03 12:24:49;;;;;;;5.80;2.83;;;11.10;99.90;;;;;;4999898;28;20041;-77
2022/03/03 12:27:15;;;;;;;4.68;2.47;;;11.20;99.20;;;;;;5021628;28;20038;-77
2022/03/03 12:29:42;;;;;;;4.18;1.90;;;11.30;99.90;;;;;;5033659;28;20025;-77
2022/03/03 12:32:27;;;;;;;5.50;3.03;;;11.10;98.80;;;;;;5017599;28;20040;-77
2022/03/03 12:34:54;;;;;;;4.00;1.88;;;11.10;99.20;;;;;;5010617;28;20049;-76
2022/03/03 12:37:20;;;;;;;2.88;1.65;;;11.30;99.90;;;;;;5033853;28;20031;-77
2022/03/03 12:39:54;;;;;;;2.85;1.73;;;11.40;99.70;;;;;;5017344;28;20079;-77
2022/03/03 12:42:25;;;;;;;2.95;1.40;;;11.30;97.70;;;;;;5010314;28;20119;-76
2022/03/03 12:44:52;;;;;;;2.85;2.00;;;11.40;98.80;;;;;;4994805;28;20095;-76
2022/03/03 12:47:30;;;;;;;3.05;1.90;;;11.20;98.30;;;;;;5010905;28;20127;-76
2022/03/03 12:49:55;;;;;;;4.35;2.35;;;11.30;98.50;;;;;;5022112;28;20095;-77
2022/03/03 12:52:22;;;;;;;2.25;1.58;;;11.40;97.00;;;;;;4994288;28;20029;-77
2022/03/03 12:54:52;;;;;;;3.25;2.20;;;11.40;97.20;;;;;;5032198;28;20038;-77